Bavaro, Dominican Republic
Current Conditions -  °F | °C
As of 8:00 AM on Sunday 23 Nov 2014 (Local Time) from MDPC Reporting Station
Few Clouds Few Clouds  
Wind Chill: 81°   Ceiling: Unl
Heat Index: 86°   Visibility: 6mi
Dew Point: 75°   Wind: 9mph
Humidity: 84%   Direction: 140°SE
Pressure: 30"   Gusts: NA
Location:  18.72°N, 68.45°W
Report Text: MDPC 231200Z 14008KT 9999 FEW018 27/24 Q1016
Loading
Personal Weather Stations






























Interactive Weather Map New forecast layout! Learn more

10-Day Weather Forecast

Advertisements
Track Severe Weather on mobile